• Join FlightAware (Why Join?)
  • Login
  • US Flag 
01:58PM EDT


 

Airport Tracker/Info


-or-


 

Live Flight TrackerFlight Track Log ✈ THY1358 ✈ 20-Apr-2013 ✈ LEMD / MAD - LTBA / IST

Flight Track Log - Related Links

Times and Time Zones

All times are in EDT time to prevent confusion due to time zone crossing. See the THY1358 flight status page for this flight to view local times or setup timezone preferences in your user account.

Time Position Orientation Groundspeed Altitude Reporting Facility
EDT Latitude Longitude Course Direction KTS MPH feet Rate Location/Type
06:30PM 40.5520 -3.5730 North 170 196 4,100  Level FlightAware
06:31PM 40.5780 -3.5630 16° North 184 212 5,300 1,620 Climbing FlightAware
06:31PM 40.6090 -3.5520 15° North 236 272 5,900 1,560 Climbing FlightAware
06:32PM 40.6420 -3.5420 13° North 256 295 6,900 2,700 Climbing FlightAware
06:32PM 40.6720 -3.5390 North 249 287 8,400 3,360 Climbing FlightAware
06:33PM 40.7060 -3.5290 13° North 251 289 10,000 2,640 Climbing FlightAware
06:33PM 40.7150 -3.5180 43° Northeast 261 300 10,400 2,280 Climbing FlightAware
06:33PM 40.7450 -3.4590 56° Northeast 283 326 12,100 2,400 Climbing FlightAware
06:34PM 40.7700 -3.3980 62° Northeast 314 361 13,600 1,620 Climbing FlightAware
06:35PM 40.7560 -3.3440 109° East 356 410 14,000 900 Climbing FlightAware
06:35PM 40.7340 -3.3250 147° Southeast 376 433 14,300 1,680 Climbing FlightAware
06:35PM 40.7180 -3.3210 169° South 373 429 14,700 2,820 Climbing FlightAware
06:36PM 40.6420 -3.3400 191° South 364 419 16,900 2,820 Climbing FlightAware
06:36PM 40.5740 -3.3560 190° South 383 441 18,700 2,640 Climbing FlightAware
06:37PM 40.5140 -3.3470 173° South 395 455 20,000 2,280 Climbing FlightAware
06:38PM 40.4420 -3.3240 166° South 409 471 21,400 1,800 Climbing FlightAware
06:38PM 40.3580 -3.2990 167° South 426 490 22,600 1,800 Climbing FlightAware
06:39PM 40.2800 -3.2730 166° South 436 502 24,000 2,160 Climbing FlightAware
06:39PM 40.2520 -3.2510 149° Southeast 442 509 24,600 1,980 Climbing FlightAware
06:40PM 40.2330 -3.2250 134° Southeast 446 513 25,000 1,740 Climbing FlightAware
06:40PM 40.2030 -3.1250 111° Southeast 454 522 26,200 1,620 Climbing FlightAware
06:41PM 40.1760 -3.0020 106° East 466 536 27,300 1,380 Climbing FlightAware
06:42PM 40.1510 -2.8930 107° East 473 544 28,200 1,260 Climbing FlightAware
06:42PM 40.1280 -2.7870 106° East 483 556 29,000 1,260 Climbing FlightAware
06:43PM 40.0990 -2.6560 106° East 491 565 30,000 1,200 Climbing FlightAware
06:44PM 40.0730 -2.5420 107° East 500 575 30,700 1,020 Climbing FlightAware
06:44PM 40.0460 -2.4230 106° East 507 583 31,400 1,260 Climbing FlightAware
06:45PM 40.0170 -2.2950 106° East 508 585 32,500 1,260 Climbing FlightAware
06:46PM 39.9900 -2.1780 107° East 511 588 33,200 1,020 Climbing FlightAware
06:47PM 39.9590 -2.0450 107° East 517 595 34,000 1,200 Climbing FlightAware
06:47PM 39.9310 -1.9240 107° East 515 593 34,900 1,200 Climbing FlightAware
06:48PM 39.9040 -1.8100 107° East 513 590 35,600 1,200 Climbing FlightAware
06:49PM 39.8720 -1.6750 107° East 509 586 36,600 1,080 Climbing FlightAware
06:49PM 39.8450 -1.5590 107° East 502 578 37,200 840 Climbing FlightAware
06:50PM 39.8130 -1.4260 107° East 501 577 37,800 540 Climbing FlightAware
06:51PM 39.7810 -1.3190 111° Southeast 507 583 38,000 120 Climbing FlightAware
06:51PM 39.7110 -1.2440 140° Southeast 494 568 38,000  Level FlightAware
06:52PM 39.6140 -1.1880 156° South 499 574 38,000  Level FlightAware
06:54PM 39.4710 -0.9710 130° Southeast 501 577 38,000  Level FlightAware
06:55PM 39.3910 -0.7880 119° Southeast 500 575 38,000  Level FlightAware
06:56PM 39.3050 -0.5930 120° Southeast 501 577 38,000  Level FlightAware
06:57PM 39.2910 -0.3890 95° East 487 560 38,000  Level FlightAware
06:59PM 39.3030 -0.1710 86° East 487 560 38,000  Level FlightAware
07:00PM 39.3130 0.0330 86° East 489 563 38,000  Level FlightAware
07:01PM 39.3240 0.2480 86° East 489 563 38,000  Level FlightAware
07:02PM 39.3330 0.4550 87° East 489 563 38,000  Level FlightAware
07:04PM 39.3430 0.6840 87° East 488 562 38,000  Level FlightAware
07:04PM 39.3470 0.7860 87° East 487 560 38,000  Level FlightAware
07:05PM 39.3540 0.9380 87° East 486 559 38,000  Level FlightAware
07:06PM 39.3590 1.0550 87° East 483 556 38,000  Level FlightAware
07:06PM 39.3640 1.1830 87° East 481 554 38,000  Level FlightAware
07:07PM 39.3690 1.2980 87° East 482 555 38,000  Level FlightAware
07:08PM 39.3740 1.4290 87° East 483 556 38,000  Level FlightAware
07:08PM 39.3780 1.5450 87° East 484 557 38,000  Level FlightAware
07:09PM 39.3820 1.6580 87° East 485 558 38,000  Level FlightAware
07:10PM 39.3860 1.7870 88° East 487 560 38,000  Level FlightAware
07:11PM 39.3900 1.9070 87° East 488 562 38,000  Level FlightAware
07:11PM 39.3950 2.0370 87° East 491 565 38,000  Level FlightAware
07:12PM 39.3980 2.1510 88° East 493 567 38,000  Level FlightAware
07:13PM 39.4020 2.2610 87° East 494 568 38,000  Level FlightAware
07:13PM 39.4060 2.3990 88° East 497 572 38,000  Level FlightAware
07:14PM 39.4090 2.5220 88° East 499 574 38,000  Level FlightAware
07:15PM 39.4130 2.6550 88° East 500 575 38,000  Level FlightAware
07:15PM 39.4160 2.7750 88° East 498 573 38,000  Level FlightAware
07:16PM 39.4190 2.8930 88° East 498 573 38,000  Level FlightAware
07:17PM 39.4220 3.0240 88° East 499 574 38,000  Level FlightAware
07:18PM 39.4250 3.1450 88° East 500 575 38,000  Level FlightAware
07:18PM 39.4400 3.2760 82° East 479 551 38,000  Level FlightAware
07:19PM 39.4820 3.3760 61° Northeast 464 534 38,000  Level FlightAware
07:20PM 39.5260 3.4720 59° Northeast 464 534 38,000  Level FlightAware
07:20PM 39.5760 3.5800 59° Northeast 462 532 38,000  Level FlightAware
07:21PM 39.6190 3.6750 60° Northeast 461 531 38,000  Level FlightAware
07:22PM 39.6690 3.7840 59° Northeast 462 532 38,000  Level FlightAware
07:22PM 39.7120 3.8800 60° Northeast 473 544 38,000  Level FlightAware
07:23PM 39.7570 3.9790 59° Northeast 479 551 38,000  Level FlightAware
07:24PM 39.8070 4.0910 60° Northeast 479 551 38,000  Level FlightAware
07:25PM 39.8480 4.1910 62° Northeast 483 556 38,000  Level FlightAware
07:25PM 39.8780 4.3190 73° East 493 567 38,000  Level FlightAware
07:26PM 39.9020 4.4340 75° East 491 565 38,000  Level FlightAware
07:27PM 39.9260 4.5490 75° East 488 562 38,000  Level FlightAware
07:27PM 39.9510 4.6740 75° East 486 559 38,000  Level FlightAware
07:28PM 39.9760 4.7930 75° East 483 556 38,000  Level FlightAware
07:29PM 40.0010 4.9130 75° East 482 555 38,000  Level FlightAware
07:29PM 40.0250 5.0300 75° East 483 556 38,000  Level FlightAware
07:30PM 40.0470 5.1430 76° East 485 558 38,000  Level FlightAware
07:31PM 40.0730 5.2700 75° East 485 558 38,000  Level FlightAware
07:32PM 40.0960 5.3830 75° East 484 557 38,000  Level FlightAware
07:32PM 40.1180 5.4970 76° East 483 556 38,000  Level FlightAware
07:33PM 40.1440 5.6260 75° East 484 557 38,000  Level FlightAware
07:34PM 40.1660 5.7400 76° East 485 558 38,000  Level FlightAware
07:34PM 40.1890 5.8530 75° East 485 558 38,000  Level FlightAware
07:35PM 40.2140 5.9820 76° East 487 560 38,000  Level FlightAware
07:36PM 40.2390 6.1100 76° East 489 563 38,000  Level FlightAware
07:36PM 40.2600 6.2230 76° East 492 566 38,000  Level FlightAware
07:37PM 40.2830 6.3410 76° East 491 565 38,000  Level FlightAware
07:38PM 40.2990 6.4280 76° East 490 564 38,000  Level FlightAware
07:38PM 40.3210 6.5420 76° East 486 559 38,000  Level FlightAware
07:39PM 40.3450 6.6700 76° East 486 559 38,000  Level FlightAware
07:40PM 40.3630 6.7860 78° East 487 560 38,000  Level FlightAware
07:40PM 40.3780 6.9170 81° East 488 562 38,000  Level FlightAware
07:41PM 40.3910 7.0340 82° East 487 560 38,000  Level FlightAware
07:42PM 40.4040 7.1510 82° East 488 562 38,000  Level FlightAware
07:43PM 40.4190 7.2820 81° East 488 562 38,000  Level FlightAware
07:43PM 40.4320 7.4000 82° East 486 559 38,000  Level FlightAware
07:44PM 40.4470 7.5300 81° East 483 556 38,000  Level FlightAware
07:45PM 40.4590 7.6460 82° East 482 555 38,000  Level FlightAware
07:45PM 40.4720 7.7620 82° East 481 554 38,000  Level FlightAware
07:46PM 40.4850 7.8880 82° East 470 541 38,000  Level FlightAware
07:47PM 40.4970 8.0020 82° East 467 537 38,000  Level FlightAware
07:47PM 40.5090 8.1090 82° East 466 536 38,000  Level FlightAware
07:48PM 40.5220 8.2350 82° East 465 535 38,000  Level FlightAware
07:49PM 40.5340 8.3470 82° East 463 533 38,000  Level FlightAware
07:50PM 40.5460 8.4710 83° East 462 532 38,000  Level FlightAware
07:50PM 40.5580 8.5840 82° East 462 532 38,000  Level FlightAware
07:51PM 40.5700 8.7080 83° East 464 534 38,000  Level FlightAware
07:52PM 40.5810 8.8220 83° East 463 533 38,000  Level FlightAware
07:52PM 40.5920 8.9330 83° East 463 533 38,000  Level FlightAware
07:53PM 40.6040 9.0590 83° East 462 532 38,000  Level FlightAware
07:54PM 40.6150 9.1720 83° East 462 532 38,000  Level FlightAware
07:54PM 40.6250 9.2810 83° East 466 536 38,000  Level FlightAware
07:55PM 40.6370 9.4070 83° East 466 536 38,000  Level FlightAware
07:56PM 40.6490 9.5340 83° East 464 534 38,000  Level FlightAware
07:57PM 40.6590 9.6460 83° East 458 527 38,000  Level FlightAware
07:57PM 40.6690 9.7560 83° East 459 528 38,000  Level FlightAware
07:58PM 40.6790 9.8680 83° East 466 536 38,000  Level FlightAware
07:59PM 40.6910 9.9960 83° East 469 540 38,000  Level FlightAware
07:59PM 40.7000 10.1080 84° East 470 541 38,000  Level FlightAware
08:00PM 40.7110 10.2380 84° East 471 542 38,000  Level FlightAware
08:01PM 40.7210 10.3560 84° East 473 544 38,000  Level FlightAware
08:01PM 40.7310 10.4720 83° East 475 547 38,000  Level FlightAware
08:02PM 40.7420 10.6020 84° East 477 549 38,000  Level FlightAware
08:03PM 40.7510 10.7170 84° East 477 549 38,000  Level FlightAware
08:04PM 40.7610 10.8420 84° East 477 549 38,000  Level FlightAware
08:04PM 40.7710 10.9550 83° East 476 548 38,000  Level FlightAware
08:05PM 40.7800 11.0730 84° East 474 545 38,000  Level FlightAware
08:06PM 40.7890 11.1920 84° East 473 544 38,000  Level FlightAware
08:06PM 40.7970 11.2910 84° East 471 542 38,000  Level FlightAware
08:07PM 40.8060 11.4040 84° East 469 540 38,000  Level FlightAware
08:08PM 40.8130 11.5080 85° East 468 539 38,000  Level FlightAware
08:09PM 40.8230 11.6470 85° East 465 535 38,000  Level FlightAware
08:09PM 40.8310 11.7630 85° East 463 533 38,000  Level FlightAware
08:10PM 40.8270 11.8660 93° East 463 533 38,000  Level FlightAware
08:11PM 40.8210 11.9990 93° East 460 529 38,000  Level FlightAware
08:11PM 40.8150 12.1200 94° East 460 529 38,000  Level FlightAware
08:12PM 40.8080 12.2600 94° East 458 527 38,000  Level FlightAware
08:13PM 40.8050 12.3160 94° East 457 526 38,000  Level FlightAware
08:13PM 40.7970 12.4790 94° East 456 525 38,000  Level FlightAware
08:14PM 40.7930 12.5560 94° East 456 525 38,000  Level FlightAware
08:15PM 40.7850 12.7030 94° East 455 524 38,000  Level FlightAware
08:16PM 40.7780 12.8320 94° East 455 524 38,000  Level FlightAware
08:16PM 40.7740 12.9100 94° East 454 522 38,000  Level FlightAware
08:17PM 40.7610 13.1370 94° East 452 520 38,000  Level FlightAware
08:18PM 40.7590 13.1750 94° East 452 520 38,000  Level FlightAware
08:19PM 40.7480 13.3660 94° East 451 519 38,000  Level FlightAware
08:19PM 40.7410 13.4770 95° East 451 519 38,000  Level FlightAware
08:20PM 40.7340 13.6010 94° East 450 518 38,000  Level FlightAware
08:21PM 40.7270 13.7100 95° East 449 517 38,000  Level FlightAware
08:21PM 40.7190 13.8320 95° East 448 516 38,000  Level FlightAware
08:22PM 40.7130 13.9380 94° East 448 516 38,000 -120 Level FlightAware
08:23PM 40.7060 14.0490 95° East 450 518 37,900 -360 Descending FlightAware
08:23PM 40.6970 14.1760 95° East 456 525 37,500 -540 Descending FlightAware
08:24PM 40.6900 14.2820 95° East 457 526 37,200 -420 Descending FlightAware
08:25PM 40.6830 14.3950 95° East 456 525 37,000 -180 Descending FlightAware
08:26PM 40.6740 14.5190 95° East 450 518 37,000  Level FlightAware
08:26PM 40.6670 14.6300 95° East 449 517 37,000  Level FlightAware
08:27PM 40.6580 14.7520 96° East 446 513 37,000  Level FlightAware
08:28PM 40.6500 14.8530 96° East 444 511 37,000  Level FlightAware
08:28PM 40.6420 14.9630 95° East 444 511 37,000  Level FlightAware
08:29PM 40.6370 15.0430 95° East 442 509 37,000  Level FlightAware
08:30PM 40.6280 15.1650 96° East 441 507 37,000  Level FlightAware
08:30PM 40.6190 15.2730 96° East 440 506 37,000  Level FlightAware
08:31PM 40.6110 15.3790 96° East 438 504 37,000  Level FlightAware
08:32PM 40.6050 15.4880 94° East 438 504 37,000  Level FlightAware
08:32PM 40.6060 15.6020 89° East 438 504 37,000  Level FlightAware
08:33PM 40.6070 15.7090 89° East 439 505 37,000  Level FlightAware
08:34PM 40.6080 15.8300 89° East 442 509 37,000  Level FlightAware
08:34PM 40.6090 15.9370 89° East 442 509 37,000  Level FlightAware
08:35PM 40.6100 16.0540 89° East 441 507 37,000  Level FlightAware
08:36PM 40.6110 16.1620 89° East 440 506 37,000  Level FlightAware
08:37PM 40.6110 16.2860 90° East 440 506 37,000  Level FlightAware
08:37PM 40.6120 16.3910 89° East 443 510 37,000  Level FlightAware
08:38PM 40.6130 16.4990 89° East 444 511 37,000  Level FlightAware
08:39PM 40.6130 16.6200 90° East 443 510 37,000  Level FlightAware
08:39PM 40.6140 16.7260 89° East 442 509 37,000  Level FlightAware
08:40PM 40.6140 16.8480 90° East 440 506 37,000  Level FlightAware
08:41PM 40.6140 16.9570 90° East 438 504 37,000  Level FlightAware
08:41PM 40.6150 17.0610 89° East 437 503 37,000  Level FlightAware
08:42PM 40.6150 17.1710 90° East 440 506 37,000  Level FlightAware
08:43PM 40.6140 17.2850 91° East 441 507 37,000  Level FlightAware
08:44PM 40.6140 17.4090 90° East 440 506 37,000  Level FlightAware
08:44PM 40.6140 17.5150 90° East 438 504 37,000  Level FlightAware
08:45PM 40.6130 17.6230 91° East 438 504 37,000  Level FlightAware
08:46PM 40.6120 17.7290 91° East 436 502 37,000  Level FlightAware
08:46PM 40.6120 17.8430 90° East 435 501 37,000  Level FlightAware
08:47PM 40.6110 17.9490 91° East 434 499 37,000  Level FlightAware
08:48PM 40.6100 18.0710 91° East 433 498 37,000  Level FlightAware
08:48PM 40.6090 18.1720 91° East 433 498 37,000  Level FlightAware
08:49PM 40.6080 18.2900 91° East 433 498 37,000  Level FlightAware
08:50PM 40.6070 18.3960 91° East 434 499 37,000  Level FlightAware
08:51PM 40.6050 18.5190 91° East 435 501 37,000  Level FlightAware
08:51PM 40.6040 18.6230 91° East 436 502 37,000  Level FlightAware
08:52PM 40.6070 18.7650 88° East 435 501 37,000  Level FlightAware
08:53PM 40.6150 18.8770 85° East 436 502 37,000  Level FlightAware
08:54PM 40.6230 18.9930 85° East 436 502 37,000  Level FlightAware
08:54PM 40.6290 19.0750 84° East 437 503 37,000  Level FlightAware
08:55PM 40.6320 19.1280 86° East 438 504 37,000  Level FlightAware
08:56PM 40.6400 19.2490 85° East 440 506 37,000  Level FlightAware
08:56PM 40.6470 19.3510 85° East 442 509 37,000  Level FlightAware
08:57PM 40.6580 19.5230 85° East 444 511 37,000  Level FlightAware
08:58PM 40.6630 19.6110 86° East 444 511 37,000  Level FlightAware
08:59PM 40.6710 19.7500 86° East 446 513 37,000  Level FlightAware
08:59PM 40.6780 19.8540 85° East 447 514 37,000  Level FlightAware
09:00PM 40.6850 19.9710 85° East 447 514 37,000  Level FlightAware
09:01PM 40.6920 20.1010 86° East 448 516 37,000  Level FlightAware
09:01PM 40.6990 20.2140 85° East 449 517 37,000  Level FlightAware
09:02PM 40.7060 20.3410 86° East 451 519 37,000  Level FlightAware
09:03PM 40.7120 20.4540 86° East 454 522 37,000  Level FlightAware
09:03PM 40.7160 20.5270 86° East 455 524 37,000  Level FlightAware
09:04PM 40.7230 20.6620 86° East 459 528 37,000  Level FlightAware
09:05PM 40.7330 20.8440 86° East 461 531 37,000  Level FlightAware
09:06PM 40.7390 20.9600 86° East 462 532 37,000  Level FlightAware
09:06PM 40.7450 21.0850 86° East 463 533 37,000  Level FlightAware
09:07PM 40.7500 21.1950 87° East 463 533 37,000  Level FlightAware
09:08PM 40.7560 21.3220 86° East 460 529 37,000  Level FlightAware
09:08PM 40.7610 21.4350 87° East 459 528 37,000  Level FlightAware
09:09PM 40.7660 21.5470 87° East 460 529 37,000  Level FlightAware
09:10PM 40.7720 21.6700 86° East 459 528 37,000  Level FlightAware
09:11PM 40.7770 21.7850 87° East 457 526 37,000  Level FlightAware
09:11PM 40.7820 21.9100 87° East 459 528 37,000  Level FlightAware
09:12PM 40.7870 22.0210 87° East 459 528 37,000  Level FlightAware
09:13PM 40.7910 22.1330 87° East 459 528 37,000  Level FlightAware
09:13PM 40.7960 22.2600 87° East 459 528 37,000  Level FlightAware
09:14PM 40.8010 22.3710 87° East 459 528 37,000  Level FlightAware
09:15PM 40.8050 22.4930 87° East 459 528 37,000  Level FlightAware
09:15PM 40.8090 22.6090 87° East 459 528 37,000  Level FlightAware
09:16PM 40.8130 22.7200 87° East 459 528 37,000  Level FlightAware
09:17PM 40.8170 22.8440 88° East 458 527 37,000  Level FlightAware
09:18PM 40.8210 22.9580 87° East 459 528 37,000  Level FlightAware
09:18PM 40.8250 23.0830 88° East 459 528 37,000  Level FlightAware
09:19PM 40.8290 23.1940 87° East 459 528 37,000  Level FlightAware
09:20PM 40.8330 23.3200 88° East 458 527 37,000  Level FlightAware
09:20PM 40.8360 23.4350 88° East 458 527 37,000  Level FlightAware
09:21PM 40.8390 23.5430 88° East 457 526 37,000  Level FlightAware
09:22PM 40.8420 23.6650 88° East 456 525 37,000  Level FlightAware
09:22PM 40.8450 23.7790 88° East 455 524 37,000  Level FlightAware
09:23PM 40.8480 23.8870 88° East 456 525 37,000  Level FlightAware
09:24PM 40.8510 24.0150 88° East 456 525 37,000  Level FlightAware
09:25PM 40.8540 24.1260 88° East 457 526 37,000  Level FlightAware
09:25PM 40.8560 24.2510 89° East 456 525 37,000  Level FlightAware
09:26PM 40.8590 24.3610 88° East 457 526 37,000  Level FlightAware
09:27PM 40.8610 24.4860 89° East 458 527 37,000  Level FlightAware
09:27PM 40.8630 24.6000 89° East 458 527 37,000  Level FlightAware
09:28PM 40.8650 24.7100 89° East 458 527 37,000  Level FlightAware
09:29PM 40.8680 24.8370 88° East 458 527 37,000  Level FlightAware
09:29PM 40.8690 24.9480 89° East 455 524 37,000  Level FlightAware
09:30PM 40.8710 25.0550 89° East 454 522 37,000  Level FlightAware
09:31PM 40.8730 25.1840 89° East 453 521 37,000  Level FlightAware
09:32PM 40.8740 25.2930 89° East 453 521 37,000  Level FlightAware
09:32PM 40.8760 25.4190 89° East 455 524 37,000  Level FlightAware
09:33PM 40.8770 25.5250 89° East 455 524 37,000  Level FlightAware
09:34PM 40.8780 25.6520 89° East 456 525 37,000  Level FlightAware
09:34PM 40.8790 25.7330 89° East 457 526 37,000  Level FlightAware
09:35PM 40.8800 25.8760 89° East 458 527 37,000  Level FlightAware
09:36PM 40.8810 25.9830 89° East 459 528 37,000 -300 Level FlightAware
09:36PM 40.8820 26.1000 89° East 458 527 36,600 -1,440 Descending FlightAware
09:37PM 40.8820 26.2380 90° East 448 516 34,900 -2,160 Descending FlightAware
09:38PM 40.8880 26.3450 86° East 441 507 33,400 -2,040 Descending FlightAware
09:39PM 40.8970 26.4990 86° East 420 483 31,500 -2,460 Descending FlightAware
09:40PM 40.9040 26.6040 85° East 428 493 29,300 -2,880 Descending FlightAware
09:41PM 40.9180 26.8410 85° East 424 488 25,100 -2,640 Descending FlightAware
09:43PM 40.9380 27.1930 87° East 394 453 19,100 -2,220 Descending FlightAware
09:44PM 40.9320 27.2235 87° East  Level Estimated
09:46PM 40.9477 27.5223 88° East  Level Estimated
09:46PM 40.9410 27.5290 88° East 377 434 14,700  Level FlightAware
09:47PM 40.9230 27.6170 105° East 357 411 13,400 -1,800 Descending FlightAware
09:47PM 40.9070 27.6960 105° East 351 404 12,300 -1,440 Descending FlightAware
09:48PM 40.8880 27.7880 105° East 315 362 11,400 -1,080 Descending FlightAware
09:49PM 40.8740 27.8600 104° East 287 330 10,800 -900 Descending FlightAware
09:49PM 40.8610 27.9250 105° East 269 310 10,200 -1,080 Descending FlightAware
09:50PM 40.8510 27.9720 106° East 266 306 9,600 -1,200 Descending FlightAware
09:50PM 40.8420 28.0150 105° East 263 303 9,000 -1,200 Descending FlightAware
09:51PM 40.8330 28.0570 106° East 263 303 8,500 -1,080 Descending FlightAware
09:51PM 40.8280 28.0820 105° East 264 304 8,200 -360 Descending FlightAware
09:52PM 40.8170 28.1340 106° East 264 304 8,200  Level FlightAware
09:52PM 40.8090 28.1740 105° East 264 304 8,200 -1,920 Level FlightAware
09:52PM 40.8030 28.2040 105° East 264 304 6,800 -2,880 Descending FlightAware
09:53PM 40.7940 28.2480 105° East 252 290 6,300 -900 Descending FlightAware
09:53PM 40.7850 28.2920 105° East 241 277 6,000 -300 Descending FlightAware
09:54PM 40.7750 28.3350 107° East 249 287 6,000 -180 Level FlightAware
09:54PM 40.7710 28.3570 103° East 236 272 5,900  Descending FlightAware
09:55PM 40.7780 28.4060 79° East 207 238 6,000 60 Climbing FlightAware
09:55PM 40.7920 28.4400 61° Northeast 202 232 6,000  Level FlightAware
09:56PM 40.8050 28.4650 56° Northeast 206 237 6,000 -120 Level FlightAware
09:56PM 40.8170 28.4910 59° Northeast 193 222 5,900 -780 Descending FlightAware
09:57PM 40.8320 28.5220 57° Northeast 190 219 5,300 -1,140 Descending FlightAware
09:57PM 40.8450 28.5500 58° Northeast 181 208 4,800 -1,020 Descending FlightAware
09:58PM 40.8580 28.5790 59° Northeast 183 211 4,300 -1,140 Descending FlightAware
09:58PM 40.8690 28.6030 59° Northeast 183 211 3,800 -1,140 Descending FlightAware
09:58PM 40.8820 28.6300 58° Northeast 181 208 3,300 -900 Descending FlightAware
09:59PM 40.8920 28.6510 58° Northeast 181 208 3,000 -1,020 Descending FlightAware
09:59PM 40.9070 28.6830 58° Northeast 174 200 2,400 -1,140 Descending FlightAware
10:00PM 40.9190 28.7100 60° Northeast 154 177 1,900 -900 Descending FlightAware
10:00PM 40.9280 28.7280 56° Northeast 137 158 1,600 -720 Descending FlightAware
10:01PM 40.9360 28.7450 58° Northeast 134 154 1,300 -780 Descending FlightAware
10:01PM 40.9440 28.7640 61° Northeast 132 152 900 -720 Descending FlightAware
10:02PM 40.9510 28.7790 58° Northeast 132 152 700 -480 Descending FlightAware
10:02PM 40.9660 28.8110 58° Northeast 129 148 400 -360 Descending FlightAware